sensor_id;sensor_type;location;lat;lon;timestamp;temperature;humidity
32201;DHT22;18701;45.588;5.288;2024-01-25T00:01:42;10.20;99.90
32201;DHT22;18701;45.588;5.288;2024-01-25T00:04:07;10.20;99.90
32201;DHT22;18701;45.588;5.288;2024-01-25T00:06:34;10.20;99.90
32201;DHT22;18701;45.588;5.288;2024-01-25T00:08:59;10.20;99.90
32201;DHT22;18701;45.588;5.288;2024-01-25T00:11:26;10.20;99.90
32201;DHT22;18701;45.588;5.288;2024-01-25T00:13:51;10.30;99.90
32201;DHT22;18701;45.588;5.288;2024-01-25T00:16:17;10.30;99.90
32201;DHT22;18701;45.588;5.288;2024-01-25T00:18:43;10.30;99.90
32201;DHT22;18701;45.588;5.288;2024-01-25T00:21:08;10.30;99.90
32201;DHT22;18701;45.588;5.288;2024-01-25T00:23:34;10.40;99.90
32201;DHT22;18701;45.588;5.288;2024-01-25T00:25:59;10.30;99.90
32201;DHT22;18701;45.588;5.288;2024-01-25T00:28:28;10.30;99.90
32201;DHT22;18701;45.588;5.288;2024-01-25T00:30:54;10.30;99.90
32201;DHT22;18701;45.588;5.288;2024-01-25T00:33:20;10.30;99.90
32201;DHT22;18701;45.588;5.288;2024-01-25T00:35:45;10.30;99.90
32201;DHT22;18701;45.588;5.288;2024-01-25T00:38:11;10.30;99.90
32201;DHT22;18701;45.588;5.288;2024-01-25T00:40:37;10.30;99.90
32201;DHT22;18701;45.588;5.288;2024-01-25T00:43:03;10.30;99.90
32201;DHT22;18701;45.588;5.288;2024-01-25T00:45:29;10.20;99.90
32201;DHT22;18701;45.588;5.288;2024-01-25T00:47:55;10.30;99.90
32201;DHT22;18701;45.588;5.288;2024-01-25T00:50:21;10.30;99.90
32201;DHT22;18701;45.588;5.288;2024-01-25T00:52:49;10.30;99.90
32201;DHT22;18701;45.588;5.288;2024-01-25T00:55:15;10.30;99.90
32201;DHT22;18701;45.588;5.288;2024-01-25T00:57:41;10.30;99.90
32201;DHT22;18701;45.588;5.288;2024-01-25T01:00:07;10.40;99.90
32201;DHT22;18701;45.588;5.288;2024-01-25T01:02:36;10.20;99.90
32201;DHT22;18701;45.588;5.288;2024-01-25T01:05:04;10.30;99.90
32201;DHT22;18701;45.588;5.288;2024-01-25T01:07:30;10.20;99.90
32201;DHT22;18701;45.588;5.288;2024-01-25T01:09:56;10.40;99.90
32201;DHT22;18701;45.588;5.288;2024-01-25T01:12:21;10.40;99.90
32201;DHT22;18701;45.588;5.288;2024-01-25T01:14:47;10.30;99.90
32201;DHT22;18701;45.588;5.288;2024-01-25T01:17:13;10.30;99.90
32201;DHT22;18701;45.588;5.288;2024-01-25T01:19:39;10.30;99.90
32201;DHT22;18701;45.588;5.288;2024-01-25T01:22:04;10.40;99.90
32201;DHT22;18701;45.588;5.288;2024-01-25T01:24:30;10.40;99.90
32201;DHT22;18701;45.588;5.288;2024-01-25T01:26:56;10.30;99.90
32201;DHT22;18701;45.588;5.288;2024-01-25T01:29:21;10.20;99.90
32201;DHT22;18701;45.588;5.288;2024-01-25T01:31:47;10.30;99.90
32201;DHT22;18701;45.588;5.288;2024-01-25T01:34:12;10.30;99.90
32201;DHT22;18701;45.588;5.288;2024-01-25T01:36:39;10.40;99.90
32201;DHT22;18701;45.588;5.288;2024-01-25T01:39:04;10.40;99.90
32201;DHT22;18701;45.588;5.288;2024-01-25T01:41:31;10.30;99.90
32201;DHT22;18701;45.588;5.288;2024-01-25T01:43:57;10.30;99.90
32201;DHT22;18701;45.588;5.288;2024-01-25T01:48:58;10.40;99.90
32201;DHT22;18701;45.588;5.288;2024-01-25T01:51:24;10.30;99.90
32201;DHT22;18701;45.588;5.288;2024-01-25T01:53:50;10.30;99.90
32201;DHT22;18701;45.588;5.288;2024-01-25T01:56:16;10.40;99.90
32201;DHT22;18701;45.588;5.288;2024-01-25T01:58:42;10.20;99.90
32201;DHT22;18701;45.588;5.288;2024-01-25T02:01:09;10.30;99.90
32201;DHT22;18701;45.588;5.288;2024-01-25T02:03:34;10.30;99.90
32201;DHT22;18701;45.588;5.288;2024-01-25T02:06:00;10.40;99.90
32201;DHT22;18701;45.588;5.288;2024-01-25T02:08:31;10.30;99.90
32201;DHT22;18701;45.588;5.288;2024-01-25T02:10:56;10.30;99.90
32201;DHT22;18701;45.588;5.288;2024-01-25T02:13:22;10.30;99.90
32201;DHT22;18701;45.588;5.288;2024-01-25T02:15:48;10.40;99.90
32201;DHT22;18701;45.588;5.288;2024-01-25T02:18:13;10.40;99.90
32201;DHT22;18701;45.588;5.288;2024-01-25T02:20:40;10.50;99.90
32201;DHT22;18701;45.588;5.288;2024-01-25T02:23:06;10.30;99.90
32201;DHT22;18701;45.588;5.288;2024-01-25T02:25:31;10.40;99.90
32201;DHT22;18701;45.588;5.288;2024-01-25T02:27:57;10.40;99.90
32201;DHT22;18701;45.588;5.288;2024-01-25T02:30:23;10.40;99.90
32201;DHT22;18701;45.588;5.288;2024-01-25T02:32:48;10.40;99.90
32201;DHT22;18701;45.588;5.288;2024-01-25T02:35:14;10.40;99.90
32201;DHT22;18701;45.588;5.288;2024-01-25T02:37:39;10.40;99.90
32201;DHT22;18701;45.588;5.288;2024-01-25T02:40:05;10.40;99.90
32201;DHT22;18701;45.588;5.288;2024-01-25T02:42:31;10.40;99.90
32201;DHT22;18701;45.588;5.288;2024-01-25T02:44:57;10.30;99.90
32201;DHT22;18701;45.588;5.288;2024-01-25T02:47:22;10.40;99.90
32201;DHT22;18701;45.588;5.288;2024-01-25T02:49:48;10.40;99.90
32201;DHT22;18701;45.588;5.288;2024-01-25T02:52:13;10.40;99.90
32201;DHT22;18701;45.588;5.288;2024-01-25T02:54:39;10.40;99.90
32201;DHT22;18701;45.588;5.288;2024-01-25T02:57:05;10.30;99.90
32201;DHT22;18701;45.588;5.288;2024-01-25T02:59:31;10.40;99.90
32201;DHT22;18701;45.588;5.288;2024-01-25T03:01:57;10.30;99.90
32201;DHT22;18701;45.588;5.288;2024-01-25T03:04:23;10.40;99.90
32201;DHT22;18701;45.588;5.288;2024-01-25T03:06:48;10.30;99.90
32201;DHT22;18701;45.588;5.288;2024-01-25T03:09:14;10.20;99.90
32201;DHT22;18701;45.588;5.288;2024-01-25T03:11:40;10.20;99.90
32201;DHT22;18701;45.588;5.288;2024-01-25T03:14:05;10.30;99.90
32201;DHT22;18701;45.588;5.288;2024-01-25T03:16:31;10.30;99.90
32201;DHT22;18701;45.588;5.288;2024-01-25T03:18:57;10.40;99.90
32201;DHT22;18701;45.588;5.288;2024-01-25T03:21:22;10.40;99.90
32201;DHT22;18701;45.588;5.288;2024-01-25T03:23:48;10.30;99.90
32201;DHT22;18701;45.588;5.288;2024-01-25T03:26:13;10.40;99.90
32201;DHT22;18701;45.588;5.288;2024-01-25T03:28:39;10.40;99.90
32201;DHT22;18701;45.588;5.288;2024-01-25T03:31:06;10.40;99.90
32201;DHT22;18701;45.588;5.288;2024-01-25T03:33:32;10.40;99.90
32201;DHT22;18701;45.588;5.288;2024-01-25T03:36:07;10.40;99.90
32201;DHT22;18701;45.588;5.288;2024-01-25T03:38:32;10.30;99.90
32201;DHT22;18701;45.588;5.288;2024-01-25T03:40:58;10.40;99.90
32201;DHT22;18701;45.588;5.288;2024-01-25T03:43:27;10.50;99.90
32201;DHT22;18701;45.588;5.288;2024-01-25T03:45:53;10.40;99.90
32201;DHT22;18701;45.588;5.288;2024-01-25T03:48:19;10.40;99.90
32201;DHT22;18701;45.588;5.288;2024-01-25T03:50:44;10.30;99.90
32201;DHT22;18701;45.588;5.288;2024-01-25T03:53:10;10.30;99.90
32201;DHT22;18701;45.588;5.288;2024-01-25T03:55:35;10.40;99.90
32201;DHT22;18701;45.588;5.288;2024-01-25T03:58:01;10.40;99.90
32201;DHT22;18701;45.588;5.288;2024-01-25T04:00:27;10.30;99.90
32201;DHT22;18701;45.588;5.288;2024-01-25T04:02:52;10.30;99.90
32201;DHT22;18701;45.588;5.288;2024-01-25T04:05:18;10.20;99.90
32201;DHT22;18701;45.588;5.288;2024-01-25T04:07:43;10.30;99.90
32201;DHT22;18701;45.588;5.288;2024-01-25T04:10:09;10.40;99.90
32201;DHT22;18701;45.588;5.288;2024-01-25T04:12:35;10.40;99.90
32201;DHT22;18701;45.588;5.288;2024-01-25T04:15:00;10.40;99.90
32201;DHT22;18701;45.588;5.288;2024-01-25T04:17:26;10.50;99.90
32201;DHT22;18701;45.588;5.288;2024-01-25T04:19:52;10.40;99.90
32201;DHT22;18701;45.588;5.288;2024-01-25T04:22:17;10.50;99.90
32201;DHT22;18701;45.588;5.288;2024-01-25T04:24:43;10.40;99.90
32201;DHT22;18701;45.588;5.288;2024-01-25T04:27:12;10.50;99.90
32201;DHT22;18701;45.588;5.288;2024-01-25T04:29:39;10.50;99.90
32201;DHT22;18701;45.588;5.288;2024-01-25T04:32:05;10.40;99.90
32201;DHT22;18701;45.588;5.288;2024-01-25T04:34:32;10.40;99.90
32201;DHT22;18701;45.588;5.288;2024-01-25T04:36:57;10.30;99.90
32201;DHT22;18701;45.588;5.288;2024-01-25T04:39:23;10.40;99.90
32201;DHT22;18701;45.588;5.288;2024-01-25T04:41:49;10.50;99.90
32201;DHT22;18701;45.588;5.288;2024-01-25T04:44:14;10.40;99.90
32201;DHT22;18701;45.588;5.288;2024-01-25T04:46:41;10.30;99.90
32201;DHT22;18701;45.588;5.288;2024-01-25T04:49:06;10.40;99.90
32201;DHT22;18701;45.588;5.288;2024-01-25T04:51:32;10.40;99.90
32201;DHT22;18701;45.588;5.288;2024-01-25T04:53:58;10.40;99.90
32201;DHT22;18701;45.588;5.288;2024-01-25T04:56:23;10.40;99.90
32201;DHT22;18701;45.588;5.288;2024-01-25T04:58:49;10.50;99.90
32201;DHT22;18701;45.588;5.288;2024-01-25T05:01:14;10.40;99.90
32201;DHT22;18701;45.588;5.288;2024-01-25T05:03:40;10.50;99.90
32201;DHT22;18701;45.588;5.288;2024-01-25T05:06:06;10.30;99.90
32201;DHT22;18701;45.588;5.288;2024-01-25T05:08:31;10.40;99.90
32201;DHT22;18701;45.588;5.288;2024-01-25T05:10:57;10.40;99.90
32201;DHT22;18701;45.588;5.288;2024-01-25T05:13:22;10.40;99.90
32201;DHT22;18701;45.588;5.288;2024-01-25T05:15:48;10.40;99.90
32201;DHT22;18701;45.588;5.288;2024-01-25T05:18:14;10.40;99.90
32201;DHT22;18701;45.588;5.288;2024-01-25T05:20:39;10.40;99.90
32201;DHT22;18701;45.588;5.288;2024-01-25T05:23:05;10.40;99.90
32201;DHT22;18701;45.588;5.288;2024-01-25T05:25:31;10.50;99.90
32201;DHT22;18701;45.588;5.288;2024-01-25T05:27:57;10.50;99.90
32201;DHT22;18701;45.588;5.288;2024-01-25T05:30:24;10.40;99.90
32201;DHT22;18701;45.588;5.288;2024-01-25T05:32:50;10.50;99.90
32201;DHT22;18701;45.588;5.288;2024-01-25T05:35:16;10.50;99.90
32201;DHT22;18701;45.588;5.288;2024-01-25T05:37:42;10.50;99.90
32201;DHT22;18701;45.588;5.288;2024-01-25T05:40:08;10.40;99.90
32201;DHT22;18701;45.588;5.288;2024-01-25T05:42:37;10.50;99.90
32201;DHT22;18701;45.588;5.288;2024-01-25T05:45:03;10.50;99.90
32201;DHT22;18701;45.588;5.288;2024-01-25T05:47:29;10.50;99.90
32201;DHT22;18701;45.588;5.288;2024-01-25T05:49:55;10.50;99.90
32201;DHT22;18701;45.588;5.288;2024-01-25T05:52:22;10.50;99.90
32201;DHT22;18701;45.588;5.288;2024-01-25T05:54:48;10.50;99.90
32201;DHT22;18701;45.588;5.288;2024-01-25T05:57:14;10.50;99.90
32201;DHT22;18701;45.588;5.288;2024-01-25T05:59:40;10.50;99.90
32201;DHT22;18701;45.588;5.288;2024-01-25T06:02:05;10.60;99.90
32201;DHT22;18701;45.588;5.288;2024-01-25T06:04:31;10.50;99.90
32201;DHT22;18701;45.588;5.288;2024-01-25T06:06:57;10.50;99.90
32201;DHT22;18701;45.588;5.288;2024-01-25T06:09:23;10.50;99.90
32201;DHT22;18701;45.588;5.288;2024-01-25T06:11:50;10.40;99.90
32201;DHT22;18701;45.588;5.288;2024-01-25T06:14:16;10.50;99.90
32201;DHT22;18701;45.588;5.288;2024-01-25T06:16:41;10.50;99.90
32201;DHT22;18701;45.588;5.288;2024-01-25T06:19:07;10.40;99.90
32201;DHT22;18701;45.588;5.288;2024-01-25T06:21:33;10.50;99.90
32201;DHT22;18701;45.588;5.288;2024-01-25T06:24:01;10.50;99.90
32201;DHT22;18701;45.588;5.288;2024-01-25T06:26:27;10.30;99.90
32201;DHT22;18701;45.588;5.288;2024-01-25T06:28:52;10.40;99.90
32201;DHT22;18701;45.588;5.288;2024-01-25T06:31:18;10.40;99.90
32201;DHT22;18701;45.588;5.288;2024-01-25T06:33:44;10.30;99.90
32201;DHT22;18701;45.588;5.288;2024-01-25T06:36:12;10.40;99.90
32201;DHT22;18701;45.588;5.288;2024-01-25T06:38:40;10.30;99.90
32201;DHT22;18701;45.588;5.288;2024-01-25T06:41:07;10.20;99.90
32201;DHT22;18701;45.588;5.288;2024-01-25T06:43:32;10.30;99.90
32201;DHT22;18701;45.588;5.288;2024-01-25T06:45:58;10.40;99.90
32201;DHT22;18701;45.588;5.288;2024-01-25T06:48:23;10.30;99.90
32201;DHT22;18701;45.588;5.288;2024-01-25T06:50:49;10.30;99.90
32201;DHT22;18701;45.588;5.288;2024-01-25T06:53:16;10.40;99.90
32201;DHT22;18701;45.588;5.288;2024-01-25T06:55:42;10.40;99.90
32201;DHT22;18701;45.588;5.288;2024-01-25T06:58:08;10.50;99.90
32201;DHT22;18701;45.588;5.288;2024-01-25T07:00:33;10.40;99.90
32201;DHT22;18701;45.588;5.288;2024-01-25T07:03:00;10.40;99.90
32201;DHT22;18701;45.588;5.288;2024-01-25T07:05:25;10.30;99.90
32201;DHT22;18701;45.588;5.288;2024-01-25T07:07:52;10.40;99.90
32201;DHT22;18701;45.588;5.288;2024-01-25T07:10:17;10.40;99.90
32201;DHT22;18701;45.588;5.288;2024-01-25T07:12:43;10.30;99.90
32201;DHT22;18701;45.588;5.288;2024-01-25T07:15:09;10.30;99.90
32201;DHT22;18701;45.588;5.288;2024-01-25T07:17:35;10.40;99.90
32201;DHT22;18701;45.588;5.288;2024-01-25T07:20:00;10.40;99.90
32201;DHT22;18701;45.588;5.288;2024-01-25T07:22:26;10.50;99.90
32201;DHT22;18701;45.588;5.288;2024-01-25T07:24:51;10.40;99.90
32201;DHT22;18701;45.588;5.288;2024-01-25T07:27:17;10.50;99.90
32201;DHT22;18701;45.588;5.288;2024-01-25T07:29:45;10.40;99.90
32201;DHT22;18701;45.588;5.288;2024-01-25T07:32:12;10.50;99.90
32201;DHT22;18701;45.588;5.288;2024-01-25T07:34:37;10.50;99.90
32201;DHT22;18701;45.588;5.288;2024-01-25T07:37:03;10.60;99.90
32201;DHT22;18701;45.588;5.288;2024-01-25T07:39:29;10.60;99.90
32201;DHT22;18701;45.588;5.288;2024-01-25T07:41:54;10.70;99.90
32201;DHT22;18701;45.588;5.288;2024-01-25T07:44:20;10.70;99.90
32201;DHT22;18701;45.588;5.288;2024-01-25T07:46:46;10.70;99.90
32201;DHT22;18701;45.588;5.288;2024-01-25T07:49:12;10.70;99.90
32201;DHT22;18701;45.588;5.288;2024-01-25T07:51:38;10.70;99.90
32201;DHT22;18701;45.588;5.288;2024-01-25T07:54:04;10.70;99.90
32201;DHT22;18701;45.588;5.288;2024-01-25T07:56:29;10.50;99.90
32201;DHT22;18701;45.588;5.288;2024-01-25T07:58:55;10.50;99.90
32201;DHT22;18701;45.588;5.288;2024-01-25T08:01:21;10.50;99.90
32201;DHT22;18701;45.588;5.288;2024-01-25T08:03:47;10.40;99.90
32201;DHT22;18701;45.588;5.288;2024-01-25T08:06:13;10.50;99.90
32201;DHT22;18701;45.588;5.288;2024-01-25T08:08:39;10.60;99.90
32201;DHT22;18701;45.588;5.288;2024-01-25T08:11:05;10.70;99.90
32201;DHT22;18701;45.588;5.288;2024-01-25T08:13:31;10.60;99.90
32201;DHT22;18701;45.588;5.288;2024-01-25T08:15:57;10.80;99.90
32201;DHT22;18701;45.588;5.288;2024-01-25T08:18:22;10.90;99.90
32201;DHT22;18701;45.588;5.288;2024-01-25T08:20:48;10.90;99.90
32201;DHT22;18701;45.588;5.288;2024-01-25T08:23:14;10.90;99.90
32201;DHT22;18701;45.588;5.288;2024-01-25T08:25:41;11.00;99.90
32201;DHT22;18701;45.588;5.288;2024-01-25T08:28:06;11.10;99.90
32201;DHT22;18701;45.588;5.288;2024-01-25T08:30:32;11.10;99.90
32201;DHT22;18701;45.588;5.288;2024-01-25T08:32:58;11.10;99.90
32201;DHT22;18701;45.588;5.288;2024-01-25T08:35:23;11.10;99.90
32201;DHT22;18701;45.588;5.288;2024-01-25T08:37:49;11.10;99.90
32201;DHT22;18701;45.588;5.288;2024-01-25T08:40:15;11.20;99.90
32201;DHT22;18701;45.588;5.288;2024-01-25T08:42:40;11.20;99.90
32201;DHT22;18701;45.588;5.288;2024-01-25T08:45:06;11.20;99.90
32201;DHT22;18701;45.588;5.288;2024-01-25T08:47:37;11.20;99.90
32201;DHT22;18701;45.588;5.288;2024-01-25T08:50:03;11.30;99.90
32201;DHT22;18701;45.588;5.288;2024-01-25T08:52:30;11.30;99.90
32201;DHT22;18701;45.588;5.288;2024-01-25T08:54:56;11.40;99.90
32201;DHT22;18701;45.588;5.288;2024-01-25T08:57:22;11.30;99.90
32201;DHT22;18701;45.588;5.288;2024-01-25T08:59:47;11.40;99.90
32201;DHT22;18701;45.588;5.288;2024-01-25T09:02:13;11.40;99.90
32201;DHT22;18701;45.588;5.288;2024-01-25T09:04:39;11.50;99.90
32201;DHT22;18701;45.588;5.288;2024-01-25T09:07:08;11.60;99.90
32201;DHT22;18701;45.588;5.288;2024-01-25T09:09:34;11.70;99.90
32201;DHT22;18701;45.588;5.288;2024-01-25T09:12:00;11.80;99.90
32201;DHT22;18701;45.588;5.288;2024-01-25T09:14:25;11.80;99.90
32201;DHT22;18701;45.588;5.288;2024-01-25T09:16:51;11.80;99.90
32201;DHT22;18701;45.588;5.288;2024-01-25T09:19:16;11.90;99.90
32201;DHT22;18701;45.588;5.288;2024-01-25T09:21:42;11.90;99.90
32201;DHT22;18701;45.588;5.288;2024-01-25T09:24:08;12.00;99.90
32201;DHT22;18701;45.588;5.288;2024-01-25T09:26:34;12.10;99.90
32201;DHT22;18701;45.588;5.288;2024-01-25T09:28:59;12.10;99.90
32201;DHT22;18701;45.588;5.288;2024-01-25T09:31:25;12.20;99.90
32201;DHT22;18701;45.588;5.288;2024-01-25T09:33:51;12.20;99.90
32201;DHT22;18701;45.588;5.288;2024-01-25T09:36:17;12.20;99.90
32201;DHT22;18701;45.588;5.288;2024-01-25T09:38:43;12.10;99.90
32201;DHT22;18701;45.588;5.288;2024-01-25T09:41:08;12.10;99.90
32201;DHT22;18701;45.588;5.288;2024-01-25T09:43:35;12.10;99.90
32201;DHT22;18701;45.588;5.288;2024-01-25T09:46:02;12.30;99.90
32201;DHT22;18701;45.588;5.288;2024-01-25T09:48:28;12.30;99.90
32201;DHT22;18701;45.588;5.288;2024-01-25T09:50:55;12.50;99.90
32201;DHT22;18701;45.588;5.288;2024-01-25T09:53:22;12.60;99.90
32201;DHT22;18701;45.588;5.288;2024-01-25T09:55:57;12.70;99.90
32201;DHT22;18701;45.588;5.288;2024-01-25T09:58:28;12.80;99.90
32201;DHT22;18701;45.588;5.288;2024-01-25T10:00:55;12.80;99.90
32201;DHT22;18701;45.588;5.288;2024-01-25T10:03:21;12.80;99.90
32201;DHT22;18701;45.588;5.288;2024-01-25T10:05:47;12.70;99.90
32201;DHT22;18701;45.588;5.288;2024-01-25T10:08:13;12.70;99.90
32201;DHT22;18701;45.588;5.288;2024-01-25T10:10:38;13.00;99.90
32201;DHT22;18701;45.588;5.288;2024-01-25T10:13:04;13.10;99.90
32201;DHT22;18701;45.588;5.288;2024-01-25T10:15:30;13.20;99.90
32201;DHT22;18701;45.588;5.288;2024-01-25T10:17:56;13.30;99.90
32201;DHT22;18701;45.588;5.288;2024-01-25T10:20:23;13.30;99.90
32201;DHT22;18701;45.588;5.288;2024-01-25T10:22:50;13.00;99.90
32201;DHT22;18701;45.588;5.288;2024-01-25T10:25:17;13.10;99.90
32201;DHT22;18701;45.588;5.288;2024-01-25T10:27:43;13.10;99.90
32201;DHT22;18701;45.588;5.288;2024-01-25T10:30:10;13.20;99.90
32201;DHT22;18701;45.588;5.288;2024-01-25T10:32:36;13.30;99.90
32201;DHT22;18701;45.588;5.288;2024-01-25T10:35:02;13.30;99.90
32201;DHT22;18701;45.588;5.288;2024-01-25T10:37:28;13.30;99.90
32201;DHT22;18701;45.588;5.288;2024-01-25T10:39:55;13.40;99.90
32201;DHT22;18701;45.588;5.288;2024-01-25T10:42:21;13.50;99.90
32201;DHT22;18701;45.588;5.288;2024-01-25T10:44:47;13.40;99.90
32201;DHT22;18701;45.588;5.288;2024-01-25T10:47:12;13.50;99.90
32201;DHT22;18701;45.588;5.288;2024-01-25T10:49:38;13.70;99.90
32201;DHT22;18701;45.588;5.288;2024-01-25T10:52:05;13.80;99.90
32201;DHT22;18701;45.588;5.288;2024-01-25T10:54:31;13.90;99.90
32201;DHT22;18701;45.588;5.288;2024-01-25T10:56:58;13.80;99.90
32201;DHT22;18701;45.588;5.288;2024-01-25T10:59:24;14.00;99.90
32201;DHT22;18701;45.588;5.288;2024-01-25T11:01:51;14.10;99.90
32201;DHT22;18701;45.588;5.288;2024-01-25T11:04:19;14.20;99.90
32201;DHT22;18701;45.588;5.288;2024-01-25T11:06:45;14.20;99.90
32201;DHT22;18701;45.588;5.288;2024-01-25T11:09:18;14.10;99.90
32201;DHT22;18701;45.588;5.288;2024-01-25T11:11:47;14.40;99.90
32201;DHT22;18701;45.588;5.288;2024-01-25T11:14:16;14.70;99.90
32201;DHT22;18701;45.588;5.288;2024-01-25T11:16:43;14.90;99.90
32201;DHT22;18701;45.588;5.288;2024-01-25T11:19:21;15.10;99.90
32201;DHT22;18701;45.588;5.288;2024-01-25T11:21:49;15.00;99.90
32201;DHT22;18701;45.588;5.288;2024-01-25T11:24:24;15.00;99.90
32201;DHT22;18701;45.588;5.288;2024-01-25T11:26:54;15.10;99.90
32201;DHT22;18701;45.588;5.288;2024-01-25T11:29:21;16.90;99.90
32201;DHT22;18701;45.588;5.288;2024-01-25T11:31:50;16.50;99.90
32201;DHT22;18701;45.588;5.288;2024-01-25T11:34:16;19.90;99.90
32201;DHT22;18701;45.588;5.288;2024-01-25T11:36:43;20.20;99.90
32201;DHT22;18701;45.588;5.288;2024-01-25T11:39:10;19.50;99.90
32201;DHT22;18701;45.588;5.288;2024-01-25T11:41:36;21.10;99.90
32201;DHT22;18701;45.588;5.288;2024-01-25T11:44:02;21.90;99.90
32201;DHT22;18701;45.588;5.288;2024-01-25T11:46:31;20.80;99.90
32201;DHT22;18701;45.588;5.288;2024-01-25T11:49:00;21.00;99.90
32201;DHT22;18701;45.588;5.288;2024-01-25T11:51:25;21.20;99.90
32201;DHT22;18701;45.588;5.288;2024-01-25T11:53:51;21.20;99.90
32201;DHT22;18701;45.588;5.288;2024-01-25T11:56:20;18.00;99.90
32201;DHT22;18701;45.588;5.288;2024-01-25T11:58:47;17.60;99.90
32201;DHT22;18701;45.588;5.288;2024-01-25T12:01:13;17.40;99.90
32201;DHT22;18701;45.588;5.288;2024-01-25T12:03:40;16.60;99.90
32201;DHT22;18701;45.588;5.288;2024-01-25T12:06:06;16.10;99.90
32201;DHT22;18701;45.588;5.288;2024-01-25T12:08:34;19.40;99.90
32201;DHT22;18701;45.588;5.288;2024-01-25T12:11:07;18.50;99.90
32201;DHT22;18701;45.588;5.288;2024-01-25T12:13:39;20.90;99.90
32201;DHT22;18701;45.588;5.288;2024-01-25T12:16:05;23.00;99.90
32201;DHT22;18701;45.588;5.288;2024-01-25T12:18:31;24.60;97.70
32201;DHT22;18701;45.588;5.288;2024-01-25T12:21:02;21.80;98.10
32201;DHT22;18701;45.588;5.288;2024-01-25T12:23:35;19.90;99.90
32201;DHT22;18701;45.588;5.288;2024-01-25T12:26:07;21.60;99.90
32201;DHT22;18701;45.588;5.288;2024-01-25T12:28:33;19.00;99.90
32201;DHT22;18701;45.588;5.288;2024-01-25T12:31:04;19.10;99.90
32201;DHT22;18701;45.588;5.288;2024-01-25T12:33:30;18.00;99.90
32201;DHT22;18701;45.588;5.288;2024-01-25T12:35:56;19.50;99.90
32201;DHT22;18701;45.588;5.288;2024-01-25T12:38:23;22.70;99.90
32201;DHT22;18701;45.588;5.288;2024-01-25T12:40:49;21.00;99.90
32201;DHT22;18701;45.588;5.288;2024-01-25T12:43:16;19.30;99.90
32201;DHT22;18701;45.588;5.288;2024-01-25T12:45:42;19.10;99.90
32201;DHT22;18701;45.588;5.288;2024-01-25T12:48:08;17.70;99.90
32201;DHT22;18701;45.588;5.288;2024-01-25T12:50:34;17.40;99.90
32201;DHT22;18701;45.588;5.288;2024-01-25T12:53:04;17.10;99.90
32201;DHT22;18701;45.588;5.288;2024-01-25T12:55:31;18.80;99.90
32201;DHT22;18701;45.588;5.288;2024-01-25T12:57:57;22.70;99.90
32201;DHT22;18701;45.588;5.288;2024-01-25T13:00:23;25.90;96.50
32201;DHT22;18701;45.588;5.288;2024-01-25T13:02:50;25.70;93.40
32201;DHT22;18701;45.588;5.288;2024-01-25T13:05:16;21.90;96.40
32201;DHT22;18701;45.588;5.288;2024-01-25T13:07:41;19.30;99.90
32201;DHT22;18701;45.588;5.288;2024-01-25T13:10:08;18.00;99.90
32201;DHT22;18701;45.588;5.288;2024-01-25T13:12:34;17.40;99.90
32201;DHT22;18701;45.588;5.288;2024-01-25T13:15:00;17.30;99.90
32201;DHT22;18701;45.588;5.288;2024-01-25T13:17:25;17.00;99.90
32201;DHT22;18701;45.588;5.288;2024-01-25T13:19:53;16.70;99.90
32201;DHT22;18701;45.588;5.288;2024-01-25T13:22:19;16.30;99.90
32201;DHT22;18701;45.588;5.288;2024-01-25T13:24:46;16.00;99.90
32201;DHT22;18701;45.588;5.288;2024-01-25T13:27:12;15.80;99.90
32201;DHT22;18701;45.588;5.288;2024-01-25T13:29:38;15.70;99.90
32201;DHT22;18701;45.588;5.288;2024-01-25T13:32:04;15.50;99.90
32201;DHT22;18701;45.588;5.288;2024-01-25T13:34:29;15.30;99.90
32201;DHT22;18701;45.588;5.288;2024-01-25T13:36:55;15.00;99.90
32201;DHT22;18701;45.588;5.288;2024-01-25T13:39:20;14.90;99.90
32201;DHT22;18701;45.588;5.288;2024-01-25T13:41:47;14.60;99.90
32201;DHT22;18701;45.588;5.288;2024-01-25T13:44:14;14.60;99.90
32201;DHT22;18701;45.588;5.288;2024-01-25T13:46:40;14.60;99.90
32201;DHT22;18701;45.588;5.288;2024-01-25T13:49:05;14.50;99.90
32201;DHT22;18701;45.588;5.288;2024-01-25T13:51:31;14.60;99.90
32201;DHT22;18701;45.588;5.288;2024-01-25T13:53:56;14.50;99.90
32201;DHT22;18701;45.588;5.288;2024-01-25T13:56:22;14.50;99.90
32201;DHT22;18701;45.588;5.288;2024-01-25T13:58:48;14.50;99.90
32201;DHT22;18701;45.588;5.288;2024-01-25T14:01:13;14.60;99.90
32201;DHT22;18701;45.588;5.288;2024-01-25T14:03:39;14.70;99.90
32201;DHT22;18701;45.588;5.288;2024-01-25T14:06:05;14.80;99.90
32201;DHT22;18701;45.588;5.288;2024-01-25T14:08:31;14.90;99.90
32201;DHT22;18701;45.588;5.288;2024-01-25T14:10:57;14.80;99.90
32201;DHT22;18701;45.588;5.288;2024-01-25T14:13:23;14.70;99.90
32201;DHT22;18701;45.588;5.288;2024-01-25T14:15:49;14.70;99.90
32201;DHT22;18701;45.588;5.288;2024-01-25T14:18:14;14.80;99.90
32201;DHT22;18701;45.588;5.288;2024-01-25T14:20:40;14.80;99.90
32201;DHT22;18701;45.588;5.288;2024-01-25T14:23:05;14.90;99.90
32201;DHT22;18701;45.588;5.288;2024-01-25T14:25:31;14.90;99.90
32201;DHT22;18701;45.588;5.288;2024-01-25T14:27:57;15.00;99.90
32201;DHT22;18701;45.588;5.288;2024-01-25T14:30:22;15.30;99.90
32201;DHT22;18701;45.588;5.288;2024-01-25T14:32:48;15.60;99.90
32201;DHT22;18701;45.588;5.288;2024-01-25T14:35:13;16.00;99.90
32201;DHT22;18701;45.588;5.288;2024-01-25T14:37:39;16.10;99.90
32201;DHT22;18701;45.588;5.288;2024-01-25T14:40:06;16.00;99.90
32201;DHT22;18701;45.588;5.288;2024-01-25T14:42:32;15.90;99.90
32201;DHT22;18701;45.588;5.288;2024-01-25T14:44:58;15.90;99.90
32201;DHT22;18701;45.588;5.288;2024-01-25T14:47:23;15.80;99.90
32201;DHT22;18701;45.588;5.288;2024-01-25T14:49:49;15.80;99.90
32201;DHT22;18701;45.588;5.288;2024-01-25T14:52:16;15.60;99.90
32201;DHT22;18701;45.588;5.288;2024-01-25T14:54:42;15.50;99.90
32201;DHT22;18701;45.588;5.288;2024-01-25T14:57:07;15.40;99.90
32201;DHT22;18701;45.588;5.288;2024-01-25T14:59:33;15.40;99.90
32201;DHT22;18701;45.588;5.288;2024-01-25T15:01:58;15.20;99.90
32201;DHT22;18701;45.588;5.288;2024-01-25T15:04:24;15.30;99.90
32201;DHT22;18701;45.588;5.288;2024-01-25T15:06:55;15.40;99.90
32201;DHT22;18701;45.588;5.288;2024-01-25T15:09:20;15.20;99.90
32201;DHT22;18701;45.588;5.288;2024-01-25T15:11:46;15.30;99.90
32201;DHT22;18701;45.588;5.288;2024-01-25T15:14:13;15.30;99.90
32201;DHT22;18701;45.588;5.288;2024-01-25T15:16:39;15.50;99.90
32201;DHT22;18701;45.588;5.288;2024-01-25T15:19:06;15.50;99.90
32201;DHT22;18701;45.588;5.288;2024-01-25T15:21:31;15.30;99.90
32201;DHT22;18701;45.588;5.288;2024-01-25T15:23:57;15.40;99.90
32201;DHT22;18701;45.588;5.288;2024-01-25T15:26:22;15.40;99.90